sensor_id;sensor_type;location;lat;lon;timestamp;temperature;humidity
41058;DHT22;66768;48.884;2.258;2024-02-15T00:00:51;14.10;99.90
41058;DHT22;66768;48.884;2.258;2024-02-15T00:03:18;14.10;99.90
41058;DHT22;66768;48.884;2.258;2024-02-15T00:05:47;14.10;99.90
41058;DHT22;66768;48.884;2.258;2024-02-15T00:08:13;14.10;99.90
41058;DHT22;66768;48.884;2.258;2024-02-15T00:10:41;14.10;99.90
41058;DHT22;66768;48.884;2.258;2024-02-15T00:13:11;14.10;99.90
41058;DHT22;66768;48.884;2.258;2024-02-15T00:15:38;14.10;99.90
41058;DHT22;66768;48.884;2.258;2024-02-15T00:18:05;14.10;99.90
41058;DHT22;66768;48.884;2.258;2024-02-15T00:20:32;14.10;99.90
41058;DHT22;66768;48.884;2.258;2024-02-15T00:23:01;14.00;99.90
41058;DHT22;66768;48.884;2.258;2024-02-15T00:25:28;14.00;99.90
41058;DHT22;66768;48.884;2.258;2024-02-15T00:27:56;14.00;99.90
41058;DHT22;66768;48.884;2.258;2024-02-15T00:30:22;14.10;99.90
41058;DHT22;66768;48.884;2.258;2024-02-15T00:32:49;14.10;99.90
41058;DHT22;66768;48.884;2.258;2024-02-15T00:35:16;14.10;99.90
41058;DHT22;66768;48.884;2.258;2024-02-15T00:37:44;14.00;99.90
41058;DHT22;66768;48.884;2.258;2024-02-15T00:40:13;14.00;99.90
41058;DHT22;66768;48.884;2.258;2024-02-15T00:42:39;14.00;99.90
41058;DHT22;66768;48.884;2.258;2024-02-15T00:45:06;14.00;99.90
41058;DHT22;66768;48.884;2.258;2024-02-15T00:47:34;14.00;99.90
41058;DHT22;66768;48.884;2.258;2024-02-15T00:50:01;14.10;99.90
41058;DHT22;66768;48.884;2.258;2024-02-15T00:52:28;14.00;99.90
41058;DHT22;66768;48.884;2.258;2024-02-15T00:54:56;14.00;99.90
41058;DHT22;66768;48.884;2.258;2024-02-15T00:57:24;14.00;99.90
41058;DHT22;66768;48.884;2.258;2024-02-15T00:59:51;13.90;99.90
41058;DHT22;66768;48.884;2.258;2024-02-15T01:02:18;14.00;99.90
41058;DHT22;66768;48.884;2.258;2024-02-15T01:04:45;14.00;99.90
41058;DHT22;66768;48.884;2.258;2024-02-15T01:07:12;14.00;99.90
41058;DHT22;66768;48.884;2.258;2024-02-15T01:09:39;14.00;99.90
41058;DHT22;66768;48.884;2.258;2024-02-15T01:12:06;14.00;99.90
41058;DHT22;66768;48.884;2.258;2024-02-15T01:14:34;13.90;99.90
41058;DHT22;66768;48.884;2.258;2024-02-15T01:17:01;13.90;99.90
41058;DHT22;66768;48.884;2.258;2024-02-15T01:19:27;13.90;99.90
41058;DHT22;66768;48.884;2.258;2024-02-15T01:21:54;13.90;99.90
41058;DHT22;66768;48.884;2.258;2024-02-15T01:24:21;13.90;99.90
41058;DHT22;66768;48.884;2.258;2024-02-15T01:26:50;13.90;99.90
41058;DHT22;66768;48.884;2.258;2024-02-15T01:29:17;14.00;99.90
41058;DHT22;66768;48.884;2.258;2024-02-15T01:31:45;13.90;99.90
41058;DHT22;66768;48.884;2.258;2024-02-15T01:34:12;13.90;99.90
41058;DHT22;66768;48.884;2.258;2024-02-15T01:36:39;13.90;99.90
41058;DHT22;66768;48.884;2.258;2024-02-15T01:39:06;13.90;99.90
41058;DHT22;66768;48.884;2.258;2024-02-15T01:41:33;13.90;99.90
41058;DHT22;66768;48.884;2.258;2024-02-15T01:43:59;13.90;99.90
41058;DHT22;66768;48.884;2.258;2024-02-15T01:46:27;13.90;99.90
41058;DHT22;66768;48.884;2.258;2024-02-15T01:48:56;13.90;99.90
41058;DHT22;66768;48.884;2.258;2024-02-15T01:51:24;13.80;99.90
41058;DHT22;66768;48.884;2.258;2024-02-15T01:53:53;13.80;99.90
41058;DHT22;66768;48.884;2.258;2024-02-15T01:56:21;13.90;99.90
41058;DHT22;66768;48.884;2.258;2024-02-15T01:58:49;13.80;99.90
41058;DHT22;66768;48.884;2.258;2024-02-15T02:01:17;13.90;99.90
41058;DHT22;66768;48.884;2.258;2024-02-15T02:03:44;13.90;99.90
41058;DHT22;66768;48.884;2.258;2024-02-15T02:06:12;13.80;99.90
41058;DHT22;66768;48.884;2.258;2024-02-15T02:08:40;13.80;99.90
41058;DHT22;66768;48.884;2.258;2024-02-15T02:11:07;13.90;99.90
41058;DHT22;66768;48.884;2.258;2024-02-15T02:13:33;13.90;99.90
41058;DHT22;66768;48.884;2.258;2024-02-15T02:16:01;13.90;99.90
41058;DHT22;66768;48.884;2.258;2024-02-15T02:18:27;13.80;99.90
41058;DHT22;66768;48.884;2.258;2024-02-15T02:20:54;13.80;99.90
41058;DHT22;66768;48.884;2.258;2024-02-15T02:23:26;13.90;99.90
41058;DHT22;66768;48.884;2.258;2024-02-15T02:25:54;13.80;99.90
41058;DHT22;66768;48.884;2.258;2024-02-15T02:28:22;13.80;99.90
41058;DHT22;66768;48.884;2.258;2024-02-15T02:30:48;13.80;99.90
41058;DHT22;66768;48.884;2.258;2024-02-15T02:33:15;13.80;99.90
41058;DHT22;66768;48.884;2.258;2024-02-15T02:35:44;13.80;99.90
41058;DHT22;66768;48.884;2.258;2024-02-15T02:38:12;13.80;99.90
41058;DHT22;66768;48.884;2.258;2024-02-15T02:40:39;13.80;99.90
41058;DHT22;66768;48.884;2.258;2024-02-15T02:43:07;13.80;99.90
41058;DHT22;66768;48.884;2.258;2024-02-15T02:45:35;13.80;99.90
41058;DHT22;66768;48.884;2.258;2024-02-15T02:48:02;13.80;99.90
41058;DHT22;66768;48.884;2.258;2024-02-15T02:50:29;13.80;99.90
41058;DHT22;66768;48.884;2.258;2024-02-15T02:52:55;13.70;99.90
41058;DHT22;66768;48.884;2.258;2024-02-15T02:55:22;13.70;99.90
41058;DHT22;66768;48.884;2.258;2024-02-15T02:57:49;13.70;99.90
41058;DHT22;66768;48.884;2.258;2024-02-15T03:00:18;13.70;99.90
41058;DHT22;66768;48.884;2.258;2024-02-15T03:02:46;13.70;99.90
41058;DHT22;66768;48.884;2.258;2024-02-15T03:05:13;13.70;99.90
41058;DHT22;66768;48.884;2.258;2024-02-15T03:07:40;13.70;99.90
41058;DHT22;66768;48.884;2.258;2024-02-15T03:10:08;13.70;99.90
41058;DHT22;66768;48.884;2.258;2024-02-15T03:12:35;13.70;99.90
41058;DHT22;66768;48.884;2.258;2024-02-15T03:15:02;13.70;99.90
41058;DHT22;66768;48.884;2.258;2024-02-15T03:17:31;13.70;99.90
41058;DHT22;66768;48.884;2.258;2024-02-15T03:19:58;13.60;99.90
41058;DHT22;66768;48.884;2.258;2024-02-15T03:22:27;13.60;99.90
41058;DHT22;66768;48.884;2.258;2024-02-15T03:24:54;13.60;99.90
41058;DHT22;66768;48.884;2.258;2024-02-15T03:27:21;13.60;99.90
41058;DHT22;66768;48.884;2.258;2024-02-15T03:29:48;13.60;99.90
41058;DHT22;66768;48.884;2.258;2024-02-15T03:32:15;13.60;99.90
41058;DHT22;66768;48.884;2.258;2024-02-15T03:34:44;13.60;99.90
41058;DHT22;66768;48.884;2.258;2024-02-15T03:37:11;13.60;99.90
41058;DHT22;66768;48.884;2.258;2024-02-15T03:39:37;13.60;99.90
41058;DHT22;66768;48.884;2.258;2024-02-15T03:42:04;13.60;99.90
41058;DHT22;66768;48.884;2.258;2024-02-15T03:44:31;13.60;99.90
41058;DHT22;66768;48.884;2.258;2024-02-15T03:46:58;13.50;99.90
41058;DHT22;66768;48.884;2.258;2024-02-15T03:49:25;13.50;99.90
41058;DHT22;66768;48.884;2.258;2024-02-15T03:51:53;13.50;99.90
41058;DHT22;66768;48.884;2.258;2024-02-15T03:54:20;13.60;99.90
41058;DHT22;66768;48.884;2.258;2024-02-15T03:56:48;13.50;99.90
41058;DHT22;66768;48.884;2.258;2024-02-15T03:59:17;13.50;99.90
41058;DHT22;66768;48.884;2.258;2024-02-15T04:01:45;13.50;99.90
41058;DHT22;66768;48.884;2.258;2024-02-15T04:04:12;13.50;99.90
41058;DHT22;66768;48.884;2.258;2024-02-15T04:06:39;13.50;99.90
41058;DHT22;66768;48.884;2.258;2024-02-15T04:09:09;13.50;99.90
41058;DHT22;66768;48.884;2.258;2024-02-15T04:11:37;13.50;99.90
41058;DHT22;66768;48.884;2.258;2024-02-15T04:14:04;13.50;99.90
41058;DHT22;66768;48.884;2.258;2024-02-15T04:16:31;13.50;99.90
41058;DHT22;66768;48.884;2.258;2024-02-15T04:18:59;13.50;99.90
41058;DHT22;66768;48.884;2.258;2024-02-15T04:21:27;13.40;99.90
41058;DHT22;66768;48.884;2.258;2024-02-15T04:23:53;13.50;99.90
41058;DHT22;66768;48.884;2.258;2024-02-15T04:26:22;13.50;99.90
41058;DHT22;66768;48.884;2.258;2024-02-15T04:28:52;13.40;99.90
41058;DHT22;66768;48.884;2.258;2024-02-15T04:31:19;13.50;99.90
41058;DHT22;66768;48.884;2.258;2024-02-15T04:33:52;13.40;99.90
41058;DHT22;66768;48.884;2.258;2024-02-15T04:36:18;13.50;99.90
41058;DHT22;66768;48.884;2.258;2024-02-15T04:38:49;13.40;99.90
41058;DHT22;66768;48.884;2.258;2024-02-15T04:41:16;13.40;99.90
41058;DHT22;66768;48.884;2.258;2024-02-15T04:43:47;13.50;99.90
41058;DHT22;66768;48.884;2.258;2024-02-15T04:46:14;13.50;99.90
41058;DHT22;66768;48.884;2.258;2024-02-15T04:48:41;13.40;99.90
41058;DHT22;66768;48.884;2.258;2024-02-15T04:51:08;13.40;99.90
41058;DHT22;66768;48.884;2.258;2024-02-15T04:53:36;13.40;99.90
41058;DHT22;66768;48.884;2.258;2024-02-15T04:56:04;13.40;99.90
41058;DHT22;66768;48.884;2.258;2024-02-15T04:58:37;13.40;99.90
41058;DHT22;66768;48.884;2.258;2024-02-15T05:01:12;13.40;99.90
41058;DHT22;66768;48.884;2.258;2024-02-15T05:03:39;13.40;99.90
41058;DHT22;66768;48.884;2.258;2024-02-15T05:06:07;13.40;99.90
41058;DHT22;66768;48.884;2.258;2024-02-15T05:08:35;13.40;99.90
41058;DHT22;66768;48.884;2.258;2024-02-15T05:11:07;13.40;99.90
41058;DHT22;66768;48.884;2.258;2024-02-15T05:13:39;13.40;99.90
41058;DHT22;66768;48.884;2.258;2024-02-15T05:16:06;13.40;99.90
41058;DHT22;66768;48.884;2.258;2024-02-15T05:18:34;13.30;99.90
41058;DHT22;66768;48.884;2.258;2024-02-15T05:21:01;13.40;99.90
41058;DHT22;66768;48.884;2.258;2024-02-15T05:23:29;13.30;99.90
41058;DHT22;66768;48.884;2.258;2024-02-15T05:25:56;13.40;99.90
41058;DHT22;66768;48.884;2.258;2024-02-15T05:28:23;13.40;99.90
41058;DHT22;66768;48.884;2.258;2024-02-15T05:31:09;13.30;99.90
41058;DHT22;66768;48.884;2.258;2024-02-15T05:33:37;13.30;99.90
41058;DHT22;66768;48.884;2.258;2024-02-15T05:36:08;13.30;99.90
41058;DHT22;66768;48.884;2.258;2024-02-15T05:38:35;13.30;99.90
41058;DHT22;66768;48.884;2.258;2024-02-15T05:41:02;13.30;99.90
41058;DHT22;66768;48.884;2.258;2024-02-15T05:43:29;13.30;99.90
41058;DHT22;66768;48.884;2.258;2024-02-15T05:45:57;13.30;99.90
41058;DHT22;66768;48.884;2.258;2024-02-15T05:48:26;13.30;99.90
41058;DHT22;66768;48.884;2.258;2024-02-15T05:50:54;13.20;99.90
41058;DHT22;66768;48.884;2.258;2024-02-15T05:53:22;13.30;99.90
41058;DHT22;66768;48.884;2.258;2024-02-15T05:55:49;13.30;99.90
41058;DHT22;66768;48.884;2.258;2024-02-15T05:58:16;13.30;99.90
41058;DHT22;66768;48.884;2.258;2024-02-15T06:00:43;13.30;99.90
41058;DHT22;66768;48.884;2.258;2024-02-15T06:03:12;13.30;99.90
41058;DHT22;66768;48.884;2.258;2024-02-15T06:05:39;13.20;99.90
41058;DHT22;66768;48.884;2.258;2024-02-15T06:08:08;13.20;99.90
41058;DHT22;66768;48.884;2.258;2024-02-15T06:10:35;13.20;99.90
41058;DHT22;66768;48.884;2.258;2024-02-15T06:13:02;13.30;99.90
41058;DHT22;66768;48.884;2.258;2024-02-15T06:15:29;13.20;99.90
41058;DHT22;66768;48.884;2.258;2024-02-15T06:17:56;13.20;99.90
41058;DHT22;66768;48.884;2.258;2024-02-15T06:20:22;13.20;99.90
41058;DHT22;66768;48.884;2.258;2024-02-15T06:22:50;13.20;99.90
41058;DHT22;66768;48.884;2.258;2024-02-15T06:25:19;13.10;99.90
41058;DHT22;66768;48.884;2.258;2024-02-15T06:27:47;13.10;99.90
41058;DHT22;66768;48.884;2.258;2024-02-15T06:30:14;13.10;99.90
41058;DHT22;66768;48.884;2.258;2024-02-15T06:32:58;13.10;99.90
41058;DHT22;66768;48.884;2.258;2024-02-15T06:35:42;13.10;99.90
41058;DHT22;66768;48.884;2.258;2024-02-15T06:38:27;13.10;99.90
41058;DHT22;66768;48.884;2.258;2024-02-15T06:41:13;13.00;99.90
41058;DHT22;66768;48.884;2.258;2024-02-15T06:43:40;13.00;99.90
41058;DHT22;66768;48.884;2.258;2024-02-15T06:46:07;13.00;99.90
41058;DHT22;66768;48.884;2.258;2024-02-15T06:48:34;13.00;99.90
41058;DHT22;66768;48.884;2.258;2024-02-15T06:51:02;13.00;99.90
41058;DHT22;66768;48.884;2.258;2024-02-15T06:53:29;13.00;99.90
41058;DHT22;66768;48.884;2.258;2024-02-15T06:55:56;13.00;99.90
41058;DHT22;66768;48.884;2.258;2024-02-15T06:58:25;12.90;99.90
41058;DHT22;66768;48.884;2.258;2024-02-15T07:00:52;13.00;99.90
41058;DHT22;66768;48.884;2.258;2024-02-15T07:03:20;12.90;99.90
41058;DHT22;66768;48.884;2.258;2024-02-15T07:05:48;12.90;99.90
41058;DHT22;66768;48.884;2.258;2024-02-15T07:08:15;12.90;99.90
41058;DHT22;66768;48.884;2.258;2024-02-15T07:10:42;12.90;99.90
41058;DHT22;66768;48.884;2.258;2024-02-15T07:13:09;12.90;99.90
41058;DHT22;66768;48.884;2.258;2024-02-15T07:15:37;12.90;99.90
41058;DHT22;66768;48.884;2.258;2024-02-15T07:18:04;13.00;99.90
41058;DHT22;66768;48.884;2.258;2024-02-15T07:20:32;13.00;99.90
41058;DHT22;66768;48.884;2.258;2024-02-15T07:22:59;13.00;99.90
41058;DHT22;66768;48.884;2.258;2024-02-15T07:25:26;13.00;99.90
41058;DHT22;66768;48.884;2.258;2024-02-15T07:27:53;13.00;99.90
41058;DHT22;66768;48.884;2.258;2024-02-15T07:30:20;13.00;99.90
41058;DHT22;66768;48.884;2.258;2024-02-15T07:32:49;13.00;99.90
41058;DHT22;66768;48.884;2.258;2024-02-15T07:35:16;13.00;99.90
41058;DHT22;66768;48.884;2.258;2024-02-15T07:37:51;13.00;99.90
41058;DHT22;66768;48.884;2.258;2024-02-15T07:40:21;13.00;99.90
41058;DHT22;66768;48.884;2.258;2024-02-15T07:42:48;13.00;99.90
41058;DHT22;66768;48.884;2.258;2024-02-15T07:45:15;12.90;99.90
41058;DHT22;66768;48.884;2.258;2024-02-15T07:47:43;12.90;99.90
41058;DHT22;66768;48.884;2.258;2024-02-15T07:50:15;13.00;99.90
41058;DHT22;66768;48.884;2.258;2024-02-15T07:52:45;13.00;99.90
41058;DHT22;66768;48.884;2.258;2024-02-15T07:55:12;13.00;99.90
41058;DHT22;66768;48.884;2.258;2024-02-15T07:57:39;13.00;99.90
41058;DHT22;66768;48.884;2.258;2024-02-15T08:00:08;13.00;99.90
41058;DHT22;66768;48.884;2.258;2024-02-15T08:02:36;13.00;99.90
41058;DHT22;66768;48.884;2.258;2024-02-15T08:05:06;13.10;99.90
41058;DHT22;66768;48.884;2.258;2024-02-15T08:07:38;13.10;99.90
41058;DHT22;66768;48.884;2.258;2024-02-15T08:10:08;13.10;99.90
41058;DHT22;66768;48.884;2.258;2024-02-15T08:12:39;13.10;99.90
41058;DHT22;66768;48.884;2.258;2024-02-15T08:15:06;13.10;99.90
41058;DHT22;66768;48.884;2.258;2024-02-15T08:17:38;13.20;99.90
41058;DHT22;66768;48.884;2.258;2024-02-15T08:20:06;13.20;99.90
41058;DHT22;66768;48.884;2.258;2024-02-15T08:22:34;13.20;99.90
41058;DHT22;66768;48.884;2.258;2024-02-15T08:25:02;13.20;99.90
41058;DHT22;66768;48.884;2.258;2024-02-15T08:27:30;13.20;99.90
41058;DHT22;66768;48.884;2.258;2024-02-15T08:29:58;13.20;99.90
41058;DHT22;66768;48.884;2.258;2024-02-15T08:32:24;13.30;99.90
41058;DHT22;66768;48.884;2.258;2024-02-15T08:34:51;13.30;99.90
41058;DHT22;66768;48.884;2.258;2024-02-15T08:37:18;13.30;99.90
41058;DHT22;66768;48.884;2.258;2024-02-15T08:39:45;13.40;99.90
41058;DHT22;66768;48.884;2.258;2024-02-15T08:42:13;13.40;99.90
41058;DHT22;66768;48.884;2.258;2024-02-15T08:44:40;13.50;99.90
41058;DHT22;66768;48.884;2.258;2024-02-15T08:47:07;13.50;99.90
41058;DHT22;66768;48.884;2.258;2024-02-15T08:49:34;13.50;99.90
41058;DHT22;66768;48.884;2.258;2024-02-15T08:52:00;13.50;99.90
41058;DHT22;66768;48.884;2.258;2024-02-15T08:54:28;13.50;99.90
41058;DHT22;66768;48.884;2.258;2024-02-15T08:56:54;13.60;99.90
41058;DHT22;66768;48.884;2.258;2024-02-15T08:59:22;13.60;99.90
41058;DHT22;66768;48.884;2.258;2024-02-15T09:01:50;13.60;99.90
41058;DHT22;66768;48.884;2.258;2024-02-15T09:04:17;13.60;99.90
41058;DHT22;66768;48.884;2.258;2024-02-15T09:06:44;13.60;99.90
41058;DHT22;66768;48.884;2.258;2024-02-15T09:09:11;13.70;99.90
41058;DHT22;66768;48.884;2.258;2024-02-15T09:11:37;13.70;99.90
41058;DHT22;66768;48.884;2.258;2024-02-15T09:14:04;13.70;99.90
41058;DHT22;66768;48.884;2.258;2024-02-15T09:16:32;13.70;99.90
41058;DHT22;66768;48.884;2.258;2024-02-15T09:18:59;13.80;99.90
41058;DHT22;66768;48.884;2.258;2024-02-15T09:21:27;13.70;99.90
41058;DHT22;66768;48.884;2.258;2024-02-15T09:23:55;13.80;99.90
41058;DHT22;66768;48.884;2.258;2024-02-15T09:26:22;13.80;99.90
41058;DHT22;66768;48.884;2.258;2024-02-15T09:28:48;13.80;99.90
41058;DHT22;66768;48.884;2.258;2024-02-15T09:31:15;13.80;99.90
41058;DHT22;66768;48.884;2.258;2024-02-15T09:33:43;13.90;99.90
41058;DHT22;66768;48.884;2.258;2024-02-15T09:36:11;13.90;99.90
41058;DHT22;66768;48.884;2.258;2024-02-15T09:38:39;13.90;99.90
41058;DHT22;66768;48.884;2.258;2024-02-15T09:41:06;14.00;99.90
41058;DHT22;66768;48.884;2.258;2024-02-15T09:43:35;14.00;99.90
41058;DHT22;66768;48.884;2.258;2024-02-15T09:46:01;14.10;99.90
41058;DHT22;66768;48.884;2.258;2024-02-15T09:48:32;14.10;99.90
41058;DHT22;66768;48.884;2.258;2024-02-15T09:51:01;14.10;99.90
41058;DHT22;66768;48.884;2.258;2024-02-15T09:53:28;14.20;99.90
41058;DHT22;66768;48.884;2.258;2024-02-15T09:55:56;14.20;99.90
41058;DHT22;66768;48.884;2.258;2024-02-15T09:58:29;14.20;99.90
41058;DHT22;66768;48.884;2.258;2024-02-15T10:01:00;14.30;99.90
41058;DHT22;66768;48.884;2.258;2024-02-15T10:03:32;14.20;99.90
41058;DHT22;66768;48.884;2.258;2024-02-15T10:06:01;14.30;99.90
41058;DHT22;66768;48.884;2.258;2024-02-15T10:08:30;14.30;99.90
41058;DHT22;66768;48.884;2.258;2024-02-15T10:11:06;14.40;99.90
41058;DHT22;66768;48.884;2.258;2024-02-15T10:13:34;14.40;99.90
41058;DHT22;66768;48.884;2.258;2024-02-15T10:16:14;14.40;99.90
41058;DHT22;66768;48.884;2.258;2024-02-15T10:18:40;14.50;99.90
41058;DHT22;66768;48.884;2.258;2024-02-15T10:21:09;14.50;99.90
41058;DHT22;66768;48.884;2.258;2024-02-15T10:23:36;14.60;99.90
41058;DHT22;66768;48.884;2.258;2024-02-15T10:26:19;14.60;99.90
41058;DHT22;66768;48.884;2.258;2024-02-15T10:29:05;14.70;99.90
41058;DHT22;66768;48.884;2.258;2024-02-15T10:31:33;14.80;99.90
41058;DHT22;66768;48.884;2.258;2024-02-15T10:34:03;14.80;99.90
41058;DHT22;66768;48.884;2.258;2024-02-15T10:36:32;14.80;99.90
41058;DHT22;66768;48.884;2.258;2024-02-15T10:39:12;14.90;99.90
41058;DHT22;66768;48.884;2.258;2024-02-15T10:41:45;14.90;99.90
41058;DHT22;66768;48.884;2.258;2024-02-15T10:44:16;14.90;99.90
41058;DHT22;66768;48.884;2.258;2024-02-15T10:46:45;14.90;99.90
41058;DHT22;66768;48.884;2.258;2024-02-15T10:49:17;14.90;99.90
41058;DHT22;66768;48.884;2.258;2024-02-15T10:51:50;14.90;99.90
41058;DHT22;66768;48.884;2.258;2024-02-15T10:54:26;15.00;99.90
41058;DHT22;66768;48.884;2.258;2024-02-15T10:57:03;15.00;99.90
41058;DHT22;66768;48.884;2.258;2024-02-15T10:59:34;15.00;99.90
41058;DHT22;66768;48.884;2.258;2024-02-15T11:02:10;15.00;99.90
41058;DHT22;66768;48.884;2.258;2024-02-15T11:04:42;15.00;99.90
41058;DHT22;66768;48.884;2.258;2024-02-15T11:07:12;15.00;99.90
41058;DHT22;66768;48.884;2.258;2024-02-15T11:09:39;15.10;99.90
41058;DHT22;66768;48.884;2.258;2024-02-15T11:12:07;15.10;99.90
41058;DHT22;66768;48.884;2.258;2024-02-15T11:14:36;15.10;99.90
41058;DHT22;66768;48.884;2.258;2024-02-15T11:17:04;15.10;99.90
41058;DHT22;66768;48.884;2.258;2024-02-15T11:19:44;15.20;99.90
41058;DHT22;66768;48.884;2.258;2024-02-15T11:22:14;15.20;99.90
41058;DHT22;66768;48.884;2.258;2024-02-15T11:24:49;15.20;99.90
41058;DHT22;66768;48.884;2.258;2024-02-15T11:27:27;15.20;99.90
41058;DHT22;66768;48.884;2.258;2024-02-15T11:29:54;15.20;99.90
41058;DHT22;66768;48.884;2.258;2024-02-15T11:32:43;15.30;99.90
41058;DHT22;66768;48.884;2.258;2024-02-15T11:35:12;15.30;99.90
41058;DHT22;66768;48.884;2.258;2024-02-15T11:37:58;15.30;99.90
41058;DHT22;66768;48.884;2.258;2024-02-15T11:40:29;15.40;99.90
41058;DHT22;66768;48.884;2.258;2024-02-15T11:43:45;15.40;99.90
41058;DHT22;66768;48.884;2.258;2024-02-15T11:46:16;15.40;99.90
41058;DHT22;66768;48.884;2.258;2024-02-15T11:48:43;15.50;99.90
41058;DHT22;66768;48.884;2.258;2024-02-15T11:51:25;15.60;99.90
41058;DHT22;66768;48.884;2.258;2024-02-15T11:54:01;15.50;99.90
41058;DHT22;66768;48.884;2.258;2024-02-15T11:56:31;15.60;99.90
41058;DHT22;66768;48.884;2.258;2024-02-15T11:59:02;15.60;99.90
41058;DHT22;66768;48.884;2.258;2024-02-15T12:01:32;15.60;99.90
41058;DHT22;66768;48.884;2.258;2024-02-15T12:04:16;15.70;99.90
41058;DHT22;66768;48.884;2.258;2024-02-15T12:07:02;15.70;99.90
41058;DHT22;66768;48.884;2.258;2024-02-15T12:09:48;15.70;99.90
41058;DHT22;66768;48.884;2.258;2024-02-15T12:12:32;15.70;99.90
41058;DHT22;66768;48.884;2.258;2024-02-15T12:15:16;15.80;99.90
41058;DHT22;66768;48.884;2.258;2024-02-15T12:18:13;15.80;99.90
41058;DHT22;66768;48.884;2.258;2024-02-15T12:20:58;15.80;99.90
41058;DHT22;66768;48.884;2.258;2024-02-15T12:23:25;15.80;99.90
41058;DHT22;66768;48.884;2.258;2024-02-15T12:25:53;15.80;99.90
41058;DHT22;66768;48.884;2.258;2024-02-15T12:28:20;15.80;99.90
41058;DHT22;66768;48.884;2.258;2024-02-15T12:30:55;15.80;99.90
41058;DHT22;66768;48.884;2.258;2024-02-15T12:33:22;15.80;99.90
41058;DHT22;66768;48.884;2.258;2024-02-15T12:35:49;15.90;99.90
41058;DHT22;66768;48.884;2.258;2024-02-15T12:38:16;15.90;99.90
41058;DHT22;66768;48.884;2.258;2024-02-15T12:40:44;15.90;99.90
41058;DHT22;66768;48.884;2.258;2024-02-15T12:43:12;16.00;99.90
41058;DHT22;66768;48.884;2.258;2024-02-15T12:45:40;15.90;99.90
41058;DHT22;66768;48.884;2.258;2024-02-15T12:48:08;16.00;99.90
41058;DHT22;66768;48.884;2.258;2024-02-15T12:50:36;16.00;99.90
41058;DHT22;66768;48.884;2.258;2024-02-15T12:53:03;16.00;99.90
41058;DHT22;66768;48.884;2.258;2024-02-15T12:55:32;16.00;99.90
41058;DHT22;66768;48.884;2.258;2024-02-15T12:58:03;16.00;99.90
41058;DHT22;66768;48.884;2.258;2024-02-15T13:00:36;16.00;99.90
41058;DHT22;66768;48.884;2.258;2024-02-15T13:03:06;16.00;99.90
41058;DHT22;66768;48.884;2.258;2024-02-15T13:05:34;16.00;99.90
41058;DHT22;66768;48.884;2.258;2024-02-15T13:08:02;16.00;99.90
41058;DHT22;66768;48.884;2.258;2024-02-15T13:10:31;16.10;99.90
41058;DHT22;66768;48.884;2.258;2024-02-15T13:12:58;16.10;99.90
41058;DHT22;66768;48.884;2.258;2024-02-15T13:15:25;16.10;99.90
41058;DHT22;66768;48.884;2.258;2024-02-15T13:17:59;16.10;99.90
41058;DHT22;66768;48.884;2.258;2024-02-15T13:20:30;16.10;99.90
41058;DHT22;66768;48.884;2.258;2024-02-15T13:23:00;16.10;99.90
41058;DHT22;66768;48.884;2.258;2024-02-15T13:25:28;16.20;99.90
41058;DHT22;66768;48.884;2.258;2024-02-15T13:27:55;16.20;99.90
41058;DHT22;66768;48.884;2.258;2024-02-15T13:30:22;16.20;99.90
41058;DHT22;66768;48.884;2.258;2024-02-15T13:32:53;16.20;99.90
41058;DHT22;66768;48.884;2.258;2024-02-15T13:35:22;16.20;99.90
41058;DHT22;66768;48.884;2.258;2024-02-15T13:37:50;16.20;99.90
41058;DHT22;66768;48.884;2.258;2024-02-15T13:40:19;16.20;99.90
41058;DHT22;66768;48.884;2.258;2024-02-15T13:42:50;16.20;99.90
41058;DHT22;66768;48.884;2.258;2024-02-15T13:45:19;16.20;99.90
41058;DHT22;66768;48.884;2.258;2024-02-15T13:47:48;16.20;99.90
41058;DHT22;66768;48.884;2.258;2024-02-15T13:50:16;16.20;99.90
41058;DHT22;66768;48.884;2.258;2024-02-15T13:52:45;16.20;99.90
41058;DHT22;66768;48.884;2.258;2024-02-15T13:55:13;16.30;99.90
41058;DHT22;66768;48.884;2.258;2024-02-15T13:57:41;16.30;99.90
41058;DHT22;66768;48.884;2.258;2024-02-15T14:00:09;16.30;99.90
41058;DHT22;66768;48.884;2.258;2024-02-15T14:02:40;16.30;99.90
41058;DHT22;66768;48.884;2.258;2024-02-15T14:05:09;16.30;99.90
41058;DHT22;66768;48.884;2.258;2024-02-15T14:07:37;16.30;99.90
41058;DHT22;66768;48.884;2.258;2024-02-15T14:10:07;16.40;99.90
41058;DHT22;66768;48.884;2.258;2024-02-15T14:12:34;16.40;99.90
41058;DHT22;66768;48.884;2.258;2024-02-15T14:15:01;16.40;99.90
41058;DHT22;66768;48.884;2.258;2024-02-15T14:17:28;16.40;99.90
41058;DHT22;66768;48.884;2.258;2024-02-15T14:19:55;16.50;99.90
41058;DHT22;66768;48.884;2.258;2024-02-15T14:22:23;16.40;99.90
41058;DHT22;66768;48.884;2.258;2024-02-15T14:24:54;16.50;99.90
41058;DHT22;66768;48.884;2.258;2024-02-15T14:27:22;16.50;99.90
41058;DHT22;66768;48.884;2.258;2024-02-15T14:29:49;16.50;99.90
41058;DHT22;66768;48.884;2.258;2024-02-15T14:32:29;16.50;99.90
41058;DHT22;66768;48.884;2.258;2024-02-15T14:35:14;16.50;99.90
41058;DHT22;66768;48.884;2.258;2024-02-15T14:37:42;16.60;99.90
41058;DHT22;66768;48.884;2.258;2024-02-15T14:40:10;16.60;99.90
41058;DHT22;66768;48.884;2.258;2024-02-15T14:42:41;16.60;99.90
41058;DHT22;66768;48.884;2.258;2024-02-15T14:45:08;16.60;99.90
41058;DHT22;66768;48.884;2.258;2024-02-15T14:47:35;16.60;99.90
41058;DHT22;66768;48.884;2.258;2024-02-15T14:50:02;16.60;99.90
41058;DHT22;66768;48.884;2.258;2024-02-15T14:52:34;16.60;99.90
41058;DHT22;66768;48.884;2.258;2024-02-15T14:55:01;16.60;99.90
41058;DHT22;66768;48.884;2.258;2024-02-15T14:57:30;16.70;99.90
41058;DHT22;66768;48.884;2.258;2024-02-15T14:59:58;16.60;99.90
41058;DHT22;66768;48.884;2.258;2024-02-15T15:02:25;16.60;99.90
41058;DHT22;66768;48.884;2.258;2024-02-15T15:04:52;16.70;99.90
41058;DHT22;66768;48.884;2.258;2024-02-15T15:07:45;16.70;99.90
41058;DHT22;66768;48.884;2.258;2024-02-15T15:10:29;16.70;99.90
41058;DHT22;66768;48.884;2.258;2024-02-15T15:13:13;16.60;99.90
41058;DHT22;66768;48.884;2.258;2024-02-15T15:15:41;16.70;99.90
41058;DHT22;66768;48.884;2.258;2024-02-15T15:18:08;16.70;99.90
41058;DHT22;66768;48.884;2.258;2024-02-15T15:20:35;16.70;99.90
41058;DHT22;66768;48.884;2.258;2024-02-15T15:23:03;16.60;99.90
41058;DHT22;66768;48.884;2.258;2024-02-15T15:25:30;16.60;99.90
41058;DHT22;66768;48.884;2.258;2024-02-15T15:27:56;16.50;99.90
41058;DHT22;66768;48.884;2.258;2024-02-15T15:30:24;16.60;99.90
41058;DHT22;66768;48.884;2.258;2024-02-15T15:32:52;16.60;99.90
41058;DHT22;66768;48.884;2.258;2024-02-15T15:35:19;16.60;99.90
41058;DHT22;66768;48.884;2.258;2024-02-15T15:37:45;16.60;99.90
41058;DHT22;66768;48.884;2.258;2024-02-15T15:40:12;16.50;99.90
41058;DHT22;66768;48.884;2.258;2024-02-15T15:42:39;16.50;99.90